VISIB

Not for real navigation. The accuracy of this data is not assured See disclaimer for more information



ICAO NAME COUNTRY WIND Kt GUST Kt VIS m TEMP/DEW C BARO METAR
EGJJ Jersey Airport United Kingdom 7 0 50 13/13 30.18 EGJJ 262120Z AUTO 12007KT 0150 0050 R08/N NCD 13/13 Q1022 REFG
LIMH Pian Rosa Italy 0 0 100 -3/-3 30.36 LIMH 262055Z /////KT 0100 FZFG VV/// M03/M03 Q1028 RMK MON INVIS VAL INVIS VIS MIN 0100
EFKU Kuopio Finland 1 0 150 8/8 30.80 EFKU 262120Z AUTO VRB01KT 0150 R33/0600U FG VV002 08/08 Q1043
EFKI Kajaani Finland 2 0 150 8/7 30.77 EFKI 262120Z AUTO 16002KT 0150 FG VV002 08/07 Q1042
EFJO Joensuu Finland 2 0 200 7/7 30.77 EFJO 262120Z 34002KT 0200 FG VV002 07/07 Q1042

Show more